Hancock Co-Ron Lewis Field (KY8)

 

Airport Diagram
No Airport Diagram Available
Current Weather/Forecast (MVFR Conditions)
METAR KKY8 280555Z AUTO 32008G13KT 10SM SCT012 OVC019 M02/M03 A3047 RMK A01
TAF

Airport Information

All Charts
General
Chart Name View
TAKEOFF MINIMUMS
TAKEOFF MINIMUMS

Approaches
Chart Name Download
RNAV (GPS) RWY 05
RNAV (GPS) RWY 23
RNAV (GPS) RWY 05
RNAV (GPS) RWY 23


Airport Statistics
Departures Arrivals Local
All Collected Stats since June 2016: 0 1 0
2021 Stats: 0 0 0
January Stats: 0 0 0

Inbound Traffic (Arrivals) - 0

No inbound traffic.


Outbound Traffic (Departures) - 0

No outbound traffic.


Local Traffic (Pattern) - 0

No local traffic.